Time;durP1;ratioP1;P1;durP2;ratioP2;P2;SDS_P1;SDS_P2;PMS_P1;PMS_P2;Temp;Humidity;BMP_temperature;BMP_pressure;BME280_temperature;BME280_humidity;BME280_pressure;Samples;Min_cycle;Max_cycle;Signal;HPM_P1;HPM_P2
2022/04/17 00:00:26;;;;;;;4.68;2.30;;;13.60;76.70;;;;;;5052377;28;20408;-80
2022/04/17 00:02:52;;;;;;;4.82;2.00;;;13.60;76.70;;;;;;5050829;28;20108;-79
2022/04/17 00:05:18;;;;;;;4.40;2.10;;;13.60;77.00;;;;;;5065893;28;20020;-80
2022/04/17 00:07:44;;;;;;;2.88;1.80;;;13.60;77.00;;;;;;5070092;28;20073;-80
2022/04/17 00:10:10;;;;;;;4.00;1.95;;;13.60;77.00;;;;;;5069994;28;20025;-80
2022/04/17 00:12:37;;;;;;;3.97;2.00;;;13.50;77.00;;;;;;5070682;28;20043;-80
2022/04/17 00:15:03;;;;;;;3.97;1.98;;;13.50;77.00;;;;;;5070358;28;20502;-81
2022/04/17 00:17:29;;;;;;;3.60;2.03;;;13.50;77.10;;;;;;5069557;28;20051;-80
2022/04/17 00:19:55;;;;;;;4.32;2.00;;;13.50;77.10;;;;;;5069494;28;20029;-80
2022/04/17 00:22:20;;;;;;;5.22;2.10;;;13.50;77.10;;;;;;5070760;28;20066;-79
2022/04/17 00:24:46;;;;;;;3.85;2.17;;;13.50;77.20;;;;;;5070747;28;20024;-80
2022/04/17 00:27:11;;;;;;;4.97;2.38;;;13.50;77.30;;;;;;5067935;28;20062;-79
2022/04/17 00:29:37;;;;;;;4.90;2.67;;;13.50;77.40;;;;;;5053925;28;20021;-80
2022/04/17 00:32:03;;;;;;;3.47;2.03;;;13.50;77.40;;;;;;5048728;28;20669;-79
2022/04/17 00:34:31;;;;;;;3.40;2.22;;;13.50;77.40;;;;;;5049916;28;20460;-80
2022/04/17 00:37:00;;;;;;;4.60;2.10;;;13.50;77.40;;;;;;5048336;28;20029;-80
2022/04/17 00:39:29;;;;;;;4.00;2.20;;;13.50;77.50;;;;;;5048799;28;20600;-79
2022/04/17 00:41:55;;;;;;;3.53;2.00;;;13.50;77.50;;;;;;5046826;28;20036;-80
2022/04/17 00:44:21;;;;;;;5.07;2.50;;;13.50;77.70;;;;;;5044210;28;20017;-80
2022/04/17 00:46:46;;;;;;;6.20;2.30;;;13.50;77.60;;;;;;5049510;28;20445;-81
2022/04/17 00:49:12;;;;;;;4.93;2.25;;;13.50;77.70;;;;;;5047774;28;20052;-80
2022/04/17 00:51:38;;;;;;;4.70;2.58;;;13.40;77.60;;;;;;5048042;28;20028;-80
2022/04/17 00:54:06;;;;;;;5.10;2.30;;;13.50;77.70;;;;;;5046432;28;20112;-79
2022/04/17 00:56:32;;;;;;;5.25;2.13;;;13.40;77.70;;;;;;5054742;28;20033;-80
2022/04/17 00:58:58;;;;;;;4.43;2.45;;;13.50;77.70;;;;;;5041676;28;20728;-81
2022/04/17 01:01:24;;;;;;;5.10;2.50;;;13.50;77.70;;;;;;5048672;28;20060;-81
2022/04/17 01:03:50;;;;;;;4.10;2.30;;;13.50;77.70;;;;;;5050084;28;20472;-82
2022/04/17 01:06:16;;;;;;;4.80;2.65;;;13.50;77.70;;;;;;5044931;28;20051;-79
2022/04/17 01:08:42;;;;;;;5.03;2.20;;;13.50;77.70;;;;;;5049212;28;20702;-80
2022/04/17 01:11:09;;;;;;;5.55;2.33;;;13.50;77.80;;;;;;5067114;28;20063;-79
2022/04/17 01:13:38;;;;;;;5.88;2.40;;;13.50;77.70;;;;;;5057867;28;20025;-80
2022/04/17 01:16:05;;;;;;;4.68;2.40;;;13.40;77.70;;;;;;5035653;28;20022;-80
2022/04/17 01:19:00;;;;;;;5.10;2.63;;;13.50;77.70;;;;;;5050295;28;20029;-79
2022/04/17 01:21:27;;;;;;;4.43;2.03;;;13.50;77.70;;;;;;5045206;28;20399;-80
2022/04/17 01:26:58;;;;;;;4.68;2.30;;;13.50;77.70;;;;;;5050312;28;20040;-80
2022/04/17 01:29:35;;;;;;;4.25;2.17;;;13.40;77.70;;;;;;5049389;28;20416;-80
2022/04/17 01:32:03;;;;;;;4.20;2.33;;;13.50;77.70;;;;;;5049476;28;20035;-78
2022/04/17 01:34:29;;;;;;;4.50;2.17;;;13.50;77.60;;;;;;5048953;28;20445;-80
2022/04/17 01:36:55;;;;;;;4.18;2.30;;;13.50;77.70;;;;;;5050040;28;20029;-80
2022/04/17 01:39:21;;;;;;;4.20;2.20;;;13.50;77.70;;;;;;5054289;28;20400;-80
2022/04/17 01:41:48;;;;;;;5.20;2.70;;;13.50;77.70;;;;;;5053739;28;20092;-78
2022/04/17 01:44:16;;;;;;;4.10;2.35;;;13.50;77.60;;;;;;5054348;28;20025;-80
2022/04/17 01:46:42;;;;;;;4.38;2.22;;;13.50;77.60;;;;;;5053419;28;20017;-80
2022/04/17 01:49:07;;;;;;;4.82;2.42;;;13.60;77.50;;;;;;5052368;28;20119;-78
2022/04/17 01:51:38;;;;;;;4.13;2.00;;;13.60;77.40;;;;;;5051886;28;20119;-80
2022/04/17 01:54:05;;;;;;;3.95;2.10;;;13.60;77.20;;;;;;5052433;28;20052;-80
2022/04/17 01:56:30;;;;;;;5.20;2.47;;;13.60;77.10;;;;;;5051116;28;20025;-79
2022/04/17 01:58:56;;;;;;;4.30;2.40;;;13.60;77.00;;;;;;5053129;28;20403;-80
2022/04/17 02:01:21;;;;;;;3.85;2.30;;;13.70;77.00;;;;;;5050958;28;20025;-80
2022/04/17 02:03:47;;;;;;;4.18;2.40;;;13.70;76.90;;;;;;5051581;28;20511;-79
2022/04/17 02:06:12;;;;;;;5.03;2.60;;;13.70;76.90;;;;;;5050926;28;20105;-80
2022/04/17 02:08:38;;;;;;;5.13;2.67;;;13.70;76.90;;;;;;5052544;28;20078;-79
2022/04/17 02:11:03;;;;;;;4.65;2.70;;;13.70;76.80;;;;;;5052692;28;20057;-80
2022/04/17 02:13:29;;;;;;;4.78;2.47;;;13.70;76.80;;;;;;5052563;28;20037;-79
2022/04/17 02:15:55;;;;;;;3.92;2.22;;;13.70;76.80;;;;;;5052411;28;20024;-80
2022/04/17 02:18:21;;;;;;;6.03;2.45;;;13.70;76.80;;;;;;5050506;28;20031;-80
2022/04/17 02:20:47;;;;;;;4.55;2.45;;;13.60;76.80;;;;;;5050733;28;20021;-80
2022/04/17 02:23:13;;;;;;;4.47;2.42;;;13.60;76.90;;;;;;5047378;28;20035;-78
2022/04/17 02:25:39;;;;;;;4.57;2.40;;;13.60;77.10;;;;;;5049421;28;20035;-79
2022/04/17 02:28:04;;;;;;;5.95;2.90;;;13.60;77.10;;;;;;5033534;28;20041;-80
2022/04/17 02:30:30;;;;;;;4.70;2.33;;;13.50;77.30;;;;;;5050616;28;20051;-80
2022/04/17 02:32:55;;;;;;;4.55;2.38;;;13.50;77.40;;;;;;5050514;28;20025;-80
2022/04/17 02:35:21;;;;;;;4.30;2.50;;;13.50;77.50;;;;;;5050166;28;20075;-78
2022/04/17 02:37:46;;;;;;;4.95;2.72;;;13.50;77.50;;;;;;5050149;28;20423;-80
2022/04/17 02:40:12;;;;;;;6.22;2.50;;;13.50;77.40;;;;;;5050124;28;20029;-79
2022/04/17 02:42:37;;;;;;;4.65;2.47;;;13.50;77.50;;;;;;5051725;28;20044;-80
2022/04/17 02:45:05;;;;;;;4.88;2.60;;;13.40;77.50;;;;;;5050007;28;20472;-78
2022/04/17 02:47:43;;;;;;;4.90;2.45;;;13.50;77.60;;;;;;5049401;28;20028;-80
2022/04/17 02:50:12;;;;;;;4.53;2.53;;;13.50;77.70;;;;;;5050778;28;20022;-80
2022/04/17 02:52:38;;;;;;;5.47;2.70;;;13.40;77.70;;;;;;5049932;28;20025;-79
2022/04/17 02:55:05;;;;;;;5.03;2.67;;;13.50;77.80;;;;;;5049924;28;20052;-80
2022/04/17 02:57:31;;;;;;;3.65;2.38;;;13.40;77.90;;;;;;5050025;28;20029;-80
2022/04/17 02:59:57;;;;;;;4.70;2.50;;;13.50;78.00;;;;;;5053071;28;20074;-78
2022/04/17 03:07:52;;;;;;;4.95;2.67;;;13.40;77.90;;;;;;5052117;28;20063;-80
2022/04/17 03:10:18;;;;;;;4.55;2.45;;;13.50;78.00;;;;;;5051495;28;20052;-80
2022/04/17 03:12:44;;;;;;;4.88;2.60;;;13.40;77.90;;;;;;5052732;28;20024;-80
2022/04/17 03:15:10;;;;;;;4.50;2.58;;;13.40;77.90;;;;;;5051495;28;20036;-80
2022/04/17 03:17:35;;;;;;;4.63;2.55;;;13.40;77.90;;;;;;5050312;28;20039;-80
2022/04/17 03:20:03;;;;;;;4.55;2.60;;;13.40;78.00;;;;;;5051859;28;20056;-80
2022/04/17 03:22:28;;;;;;;4.95;2.53;;;13.40;78.00;;;;;;5050969;28;20024;-80
2022/04/17 03:24:54;;;;;;;4.68;2.67;;;13.40;78.00;;;;;;5050750;28;20039;-80
2022/04/17 03:27:19;;;;;;;4.95;2.50;;;13.40;78.10;;;;;;5051626;28;20052;-80
2022/04/17 03:29:45;;;;;;;5.45;2.78;;;13.40;78.10;;;;;;5051936;28;20033;-80
2022/04/17 03:32:10;;;;;;;6.22;3.05;;;13.40;78.00;;;;;;5049717;28;20042;-80
2022/04/17 03:34:36;;;;;;;5.57;2.85;;;13.40;78.00;;;;;;5051417;28;20021;-80
2022/04/17 03:37:03;;;;;;;4.00;2.35;;;13.30;78.00;;;;;;5049798;28;20036;-80
2022/04/17 03:39:29;;;;;;;5.38;2.95;;;13.40;78.00;;;;;;5051781;28;20029;-79
2022/04/17 03:41:54;;;;;;;4.30;2.35;;;13.40;78.00;;;;;;5050343;28;20033;-79
2022/04/17 03:44:20;;;;;;;4.82;2.50;;;13.40;78.00;;;;;;5049540;28;20518;-79
2022/04/17 03:46:47;;;;;;;5.32;2.65;;;13.40;78.10;;;;;;5051142;28;20041;-79
2022/04/17 03:49:13;;;;;;;5.72;2.85;;;13.40;78.00;;;;;;5049391;28;20155;-80
2022/04/17 03:51:39;;;;;;;4.80;2.70;;;13.40;78.00;;;;;;5049376;28;20543;-80
2022/04/17 03:54:04;;;;;;;5.32;2.72;;;13.40;78.00;;;;;;5049532;28;20029;-80
2022/04/17 03:56:30;;;;;;;4.75;2.65;;;13.40;77.90;;;;;;5050572;28;20146;-80
2022/04/17 03:58:55;;;;;;;5.60;3.10;;;13.40;77.90;;;;;;5067634;28;20042;-80
2022/04/17 04:01:21;;;;;;;6.57;3.22;;;13.30;77.90;;;;;;5047993;28;20039;-78
2022/04/17 04:03:47;;;;;;;4.72;2.80;;;13.40;77.90;;;;;;5048576;28;20029;-80
2022/04/17 04:06:13;;;;;;;5.78;2.80;;;13.30;77.90;;;;;;5048162;28;20017;-79
2022/04/17 04:08:39;;;;;;;4.75;2.67;;;13.40;78.00;;;;;;5048700;28;20025;-80
2022/04/17 04:11:05;;;;;;;4.70;2.65;;;13.40;78.00;;;;;;5048713;28;20125;-80
2022/04/17 04:13:32;;;;;;;4.53;2.60;;;13.40;77.90;;;;;;5051870;28;20120;-80
2022/04/17 04:15:58;;;;;;;4.75;2.58;;;13.40;77.90;;;;;;5059143;28;20426;-79
2022/04/17 04:18:23;;;;;;;5.35;2.83;;;13.40;77.80;;;;;;5051087;28;20032;-80
2022/04/17 04:20:49;;;;;;;5.60;2.92;;;13.40;77.90;;;;;;5051861;28;20033;-80
2022/04/17 04:23:14;;;;;;;5.18;2.70;;;13.50;77.90;;;;;;5035209;28;20564;-80
2022/04/17 04:25:40;;;;;;;4.35;2.60;;;13.40;77.80;;;;;;5050011;28;20595;-80
2022/04/17 04:30:50;;;;;;;5.72;2.80;;;13.50;77.60;;;;;;5031898;28;20039;-80
2022/04/17 04:33:15;;;;;;;6.10;3.00;;;13.50;77.50;;;;;;5036875;28;20024;-79
2022/04/17 04:35:41;;;;;;;6.45;3.05;;;13.60;77.40;;;;;;5042593;28;20132;-81
2022/04/17 04:38:07;;;;;;;4.90;2.88;;;13.60;77.40;;;;;;5049069;28;20037;-78
2022/04/17 04:40:33;;;;;;;5.07;2.90;;;13.60;77.20;;;;;;5051194;28;20033;-80
2022/04/17 04:42:59;;;;;;;4.72;2.72;;;13.60;77.10;;;;;;5049558;28;20052;-78
2022/04/17 04:48:09;;;;;;;5.22;3.08;;;13.60;77.00;;;;;;5050297;28;20735;-79
2022/04/17 04:50:35;;;;;;;5.35;2.92;;;13.60;76.90;;;;;;5048823;28;20037;-80
2022/04/17 04:53:02;;;;;;;5.43;3.13;;;13.60;77.00;;;;;;5048868;28;20056;-79
2022/04/17 04:55:27;;;;;;;5.97;3.40;;;13.60;77.00;;;;;;5049097;28;20032;-80
2022/04/17 04:57:53;;;;;;;5.95;3.45;;;13.60;77.00;;;;;;5058880;28;20020;-79
2022/04/17 05:00:19;;;;;;;4.88;2.70;;;13.60;76.90;;;;;;5053525;28;20549;-80
2022/04/17 05:02:44;;;;;;;5.43;3.03;;;13.50;77.00;;;;;;5037448;28;20034;-78
2022/04/17 05:05:10;;;;;;;5.53;3.00;;;13.50;77.20;;;;;;5044629;28;20029;-80
2022/04/17 05:07:36;;;;;;;5.40;2.72;;;13.50;77.30;;;;;;5049639;28;20471;-80
2022/04/17 05:10:06;;;;;;;6.18;3.03;;;13.50;77.50;;;;;;5047865;28;20510;-80
2022/04/17 05:12:31;;;;;;;5.90;2.80;;;13.50;77.70;;;;;;5047672;28;20484;-80
2022/04/17 05:14:57;;;;;;;5.13;2.83;;;13.50;77.80;;;;;;5047914;28;20032;-80
2022/04/17 05:17:23;;;;;;;5.60;3.00;;;13.50;78.00;;;;;;5047430;28;20028;-79
2022/04/17 05:19:49;;;;;;;5.05;2.95;;;13.40;77.90;;;;;;5048016;28;20033;-80
2022/04/17 05:22:17;;;;;;;5.78;3.08;;;13.50;78.50;;;;;;5047755;28;20194;-80
2022/04/17 05:24:44;;;;;;;5.10;3.10;;;13.40;78.00;;;;;;5047664;28;20020;-80
2022/04/17 05:27:10;;;;;;;5.90;3.10;;;13.40;78.00;;;;;;5047343;28;20071;-80
2022/04/17 05:29:35;;;;;;;4.82;2.78;;;13.40;77.90;;;;;;5049061;28;20427;-78
2022/04/17 05:32:01;;;;;;;5.78;3.30;;;13.40;77.90;;;;;;5048743;28;20033;-80
2022/04/17 05:34:27;;;;;;;5.88;3.30;;;13.50;78.00;;;;;;5048178;28;20035;-80
2022/04/17 05:36:53;;;;;;;5.78;3.28;;;13.50;78.10;;;;;;5046977;28;20025;-81
2022/04/17 05:39:18;;;;;;;5.60;3.30;;;13.40;77.90;;;;;;5048691;28;20029;-79
2022/04/17 05:41:45;;;;;;;6.18;3.20;;;13.40;77.90;;;;;;5050462;28;20033;-80
2022/04/17 05:44:12;;;;;;;5.78;3.10;;;13.40;77.90;;;;;;5047638;28;20029;-81
2022/04/17 05:46:39;;;;;;;6.05;3.25;;;13.40;78.00;;;;;;5049838;28;20029;-80
2022/04/17 05:49:06;;;;;;;5.40;3.20;;;13.40;78.00;;;;;;5051251;28;20028;-80
2022/04/17 05:51:33;;;;;;;6.22;3.60;;;13.40;77.90;;;;;;5050933;28;20029;-80
2022/04/17 05:54:00;;;;;;;5.05;3.05;;;13.40;77.90;;;;;;5050230;28;20036;-80
2022/04/17 05:56:27;;;;;;;5.20;3.10;;;13.40;77.90;;;;;;5049099;28;20029;-79
2022/04/17 05:58:52;;;;;;;5.68;3.47;;;13.50;77.90;;;;;;5049751;28;20033;-81
2022/04/17 06:01:18;;;;;;;6.05;3.45;;;13.50;77.90;;;;;;5049546;28;20103;-81
2022/04/17 06:03:43;;;;;;;5.85;3.50;;;13.30;77.80;;;;;;5050138;28;20098;-81
2022/04/17 06:06:09;;;;;;;6.00;3.30;;;13.50;77.80;;;;;;5054682;28;20073;-81
2022/04/17 06:08:34;;;;;;;6.05;3.20;;;13.50;77.80;;;;;;5051502;28;20036;-80
2022/04/17 06:11:01;;;;;;;5.28;3.10;;;13.40;77.60;;;;;;5053108;28;20408;-81
2022/04/17 06:13:26;;;;;;;6.00;3.70;;;13.50;77.60;;;;;;5051662;28;20033;-80
2022/04/17 06:15:52;;;;;;;5.80;3.47;;;13.50;77.60;;;;;;5052440;28;20537;-80
2022/04/17 06:18:17;;;;;;;5.20;3.22;;;13.50;77.50;;;;;;5061682;28;20044;-79
2022/04/17 06:20:43;;;;;;;6.68;3.47;;;13.50;77.50;;;;;;5051979;28;20069;-81
2022/04/17 06:23:08;;;;;;;5.38;3.05;;;13.50;77.40;;;;;;5049380;28;20025;-80
2022/04/17 06:25:34;;;;;;;6.55;3.97;;;13.50;77.40;;;;;;5041763;28;20028;-81
2022/04/17 06:27:59;;;;;;;5.10;3.10;;;13.60;77.30;;;;;;5047035;28;20075;-79
2022/04/17 06:30:25;;;;;;;5.63;3.30;;;13.60;77.20;;;;;;5049052;28;20036;-80
2022/04/17 06:32:50;;;;;;;5.35;3.40;;;13.60;77.10;;;;;;5052853;28;20415;-80
2022/04/17 06:35:17;;;;;;;6.85;3.53;;;13.70;77.20;;;;;;5034647;28;20068;-80
2022/04/17 06:37:51;;;;;;;5.80;3.60;;;13.70;77.10;;;;;;5070843;28;20065;-82
2022/04/17 06:40:21;;;;;;;6.43;3.58;;;13.70;77.10;;;;;;5055174;28;20136;-78
2022/04/17 06:42:48;;;;;;;5.47;3.33;;;13.70;77.00;;;;;;5034326;28;20029;-79
2022/04/17 06:45:15;;;;;;;5.47;3.28;;;13.70;77.00;;;;;;5052083;28;20045;-79
2022/04/17 06:47:40;;;;;;;5.97;3.60;;;13.70;76.90;;;;;;5052581;28;20059;-79
2022/04/17 06:50:06;;;;;;;7.78;3.35;;;13.70;76.70;;;;;;5051640;28;20564;-77
2022/04/17 06:52:32;;;;;;;8.80;4.05;;;13.80;76.60;;;;;;5052243;28;20036;-77
2022/04/17 06:54:58;;;;;;;13.30;4.93;;;13.80;76.30;;;;;;5051217;28;20087;-77
2022/04/17 06:57:32;;;;;;;12.48;4.63;;;13.80;75.90;;;;;;5051074;28;20061;-77
2022/04/17 06:59:57;;;;;;;12.73;5.25;;;13.80;75.70;;;;;;5051485;28;20475;-76
2022/04/17 07:02:23;;;;;;;10.18;4.57;;;13.90;75.60;;;;;;5052274;28;20087;-76
2022/04/17 07:04:49;;;;;;;10.38;4.35;;;14.00;75.50;;;;;;5051459;28;20056;-77
2022/04/17 07:07:14;;;;;;;9.35;4.32;;;14.00;75.30;;;;;;5051746;28;20021;-77
2022/04/17 07:09:40;;;;;;;11.50;4.63;;;14.00;75.10;;;;;;5051752;28;20013;-77
2022/04/17 07:12:06;;;;;;;11.02;4.68;;;14.00;74.90;;;;;;5057773;28;20031;-76
2022/04/17 07:14:32;;;;;;;9.57;4.45;;;14.10;74.80;;;;;;5052736;28;20092;-77
2022/04/17 07:16:57;;;;;;;12.60;4.35;;;14.10;74.70;;;;;;5052340;28;20036;-77
2022/04/17 07:19:22;;;;;;;15.25;5.25;;;14.10;74.40;;;;;;5051396;28;20023;-77
2022/04/17 07:21:48;;;;;;;9.35;4.50;;;14.20;74.60;;;;;;5051047;28;20025;-76
2022/04/17 07:24:14;;;;;;;10.80;4.75;;;14.20;74.20;;;;;;5051673;28;20021;-78
2022/04/17 07:26:40;;;;;;;13.82;4.53;;;14.20;74.20;;;;;;5052221;28;20013;-77
2022/04/17 07:29:05;;;;;;;13.18;5.18;;;14.20;74.10;;;;;;5053578;28;20549;-77
2022/04/17 07:31:31;;;;;;;8.52;3.97;;;14.20;74.00;;;;;;5053130;28;20108;-77
2022/04/17 07:33:58;;;;;;;9.25;4.57;;;14.20;74.00;;;;;;5051322;28;20029;-76
2022/04/17 07:36:23;;;;;;;10.18;4.50;;;14.20;74.00;;;;;;5043812;28;20028;-77
2022/04/17 07:38:49;;;;;;;9.82;4.70;;;14.20;73.80;;;;;;5050275;28;20017;-78
2022/04/17 07:41:14;;;;;;;9.55;4.78;;;14.20;73.90;;;;;;5050383;28;20021;-77
2022/04/17 07:43:40;;;;;;;8.98;4.95;;;14.10;74.00;;;;;;5034026;28;20077;-78
2022/04/17 07:46:05;;;;;;;9.40;4.43;;;14.20;74.20;;;;;;5043700;28;20025;-76
2022/04/17 07:48:31;;;;;;;9.60;4.53;;;14.20;74.30;;;;;;5043078;28;20436;-77
2022/04/17 07:50:56;;;;;;;10.73;4.65;;;14.20;74.20;;;;;;5053078;28;20017;-76
2022/04/17 07:53:22;;;;;;;8.93;4.95;;;14.20;74.20;;;;;;5047889;28;20496;-77
2022/04/17 07:55:50;;;;;;;10.95;4.78;;;14.20;74.10;;;;;;5059145;28;20096;-77
2022/04/17 07:58:24;;;;;;;26.30;5.47;;;14.20;74.20;;;;;;5049575;28;20033;-77
2022/04/17 08:00:59;;;;;;;58.33;7.72;;;14.20;73.90;;;;;;5033305;28;20030;-77
2022/04/17 08:03:35;;;;;;;51.05;8.40;;;14.10;73.30;;;;;;5046797;28;20029;-77
2022/04/17 08:06:02;;;;;;;26.70;6.90;;;14.00;71.10;;;;;;5049318;28;20017;-79
2022/04/17 08:08:28;;;;;;;32.17;6.60;;;14.00;70.40;;;;;;5050350;28;20126;-80
2022/04/17 08:10:54;;;;;;;13.93;6.07;;;14.00;70.00;;;;;;5055970;28;20079;-80
2022/04/17 08:13:19;;;;;;;14.25;5.88;;;13.90;69.30;;;;;;5054016;28;20494;-78
2022/04/17 08:15:45;;;;;;;14.52;6.40;;;13.90;68.80;;;;;;5053294;28;20024;-81
2022/04/17 08:18:12;;;;;;;16.90;6.60;;;13.90;68.70;;;;;;5054519;28;20049;-81
2022/04/17 08:20:37;;;;;;;14.95;6.65;;;13.90;68.10;;;;;;5053518;28;20025;-78
2022/04/17 08:23:03;;;;;;;14.23;5.97;;;13.90;68.00;;;;;;5053364;28;20031;-81
2022/04/17 08:25:29;;;;;;;18.17;6.32;;;14.00;68.00;;;;;;5053321;28;20094;-81
2022/04/17 08:27:55;;;;;;;12.40;5.43;;;14.00;67.80;;;;;;5053066;28;20017;-80
2022/04/17 08:30:26;;;;;;;15.38;5.40;;;14.00;67.80;;;;;;5055118;28;20029;-81
2022/04/17 08:32:51;;;;;;;12.70;6.00;;;14.00;68.90;;;;;;5054249;28;20553;-80
2022/04/17 08:35:17;;;;;;;12.82;6.10;;;14.10;68.20;;;;;;5053142;28;20029;-80
2022/04/17 08:37:46;;;;;;;11.32;5.07;;;14.00;67.70;;;;;;5053853;28;20021;-80
2022/04/17 08:40:13;;;;;;;11.93;4.85;;;14.00;67.70;;;;;;5052638;28;20028;-80
2022/04/17 08:42:39;;;;;;;12.30;5.38;;;14.10;67.60;;;;;;5054185;28;20067;-81
2022/04/17 08:45:05;;;;;;;10.40;5.63;;;14.10;67.40;;;;;;5052878;28;20127;-80
2022/04/17 08:47:32;;;;;;;9.70;5.60;;;14.10;67.30;;;;;;5051809;28;20072;-80
2022/04/17 08:49:58;;;;;;;10.63;5.43;;;14.10;67.10;;;;;;5053488;28;20039;-80
2022/04/17 08:52:25;;;;;;;11.80;5.72;;;14.20;67.10;;;;;;5052675;28;20480;-80
2022/04/17 08:54:50;;;;;;;9.05;4.80;;;14.20;67.10;;;;;;5052106;28;20044;-80
2022/04/17 08:57:16;;;;;;;12.70;5.47;;;14.20;66.90;;;;;;5053273;28;20029;-81
2022/04/17 08:59:42;;;;;;;10.63;5.28;;;14.20;66.80;;;;;;5053438;28;20516;-80
2022/04/17 09:02:11;;;;;;;10.23;5.75;;;14.20;66.90;;;;;;5052934;28;20028;-79
2022/04/17 09:04:38;;;;;;;8.40;5.20;;;14.20;67.00;;;;;;5052118;28;20467;-78
2022/04/17 09:07:07;;;;;;;14.70;4.97;;;14.20;67.00;;;;;;5052170;28;20111;-79
2022/04/17 09:09:36;;;;;;;20.00;5.07;;;14.30;66.90;;;;;;5050582;28;20044;-79
2022/04/17 09:12:02;;;;;;;31.00;5.93;;;14.20;66.90;;;;;;5032411;28;20029;-77
2022/04/17 09:14:28;;;;;;;28.23;6.68;;;14.30;66.50;;;;;;5031283;28;20448;-78
2022/04/17 09:16:53;;;;;;;21.30;6.38;;;14.30;66.40;;;;;;5042043;28;20391;-79
2022/04/17 09:19:19;;;;;;;21.58;5.60;;;14.30;66.60;;;;;;5054537;28;20056;-78
2022/04/17 09:21:53;;;;;;;21.23;5.43;;;14.40;66.70;;;;;;5033988;28;20052;-78
2022/04/17 09:24:21;;;;;;;20.15;5.30;;;14.40;66.70;;;;;;5040140;28;20367;-78
2022/04/17 09:26:57;;;;;;;16.33;5.13;;;14.40;66.70;;;;;;5051334;28;20025;-77
2022/04/17 09:29:39;;;;;;;13.07;4.90;;;14.50;66.90;;;;;;5049964;28;20040;-77
2022/04/17 09:32:15;;;;;;;16.85;4.90;;;14.50;67.00;;;;;;5063583;28;20033;-79
2022/04/17 09:34:44;;;;;;;11.98;4.90;;;14.50;67.10;;;;;;5048940;28;20029;-79
2022/04/17 09:37:18;;;;;;;14.40;4.80;;;14.50;67.20;;;;;;5047105;28;20055;-78
2022/04/17 09:39:44;;;;;;;15.10;4.78;;;14.60;67.40;;;;;;5049079;28;20037;-77
2022/04/17 09:42:10;;;;;;;15.20;4.60;;;14.60;67.50;;;;;;5034982;28;20018;-76
2022/04/17 09:44:46;;;;;;;13.52;4.35;;;14.60;67.60;;;;;;5041791;28;20026;-79
2022/04/17 09:47:16;;;;;;;12.05;4.80;;;14.60;67.70;;;;;;5051154;28;20028;-76
2022/04/17 09:49:57;;;;;;;14.30;5.00;;;14.60;67.90;;;;;;5047066;28;20498;-77
2022/04/17 09:52:25;;;;;;;10.70;4.50;;;14.60;68.00;;;;;;5050284;28;20028;-76
2022/04/17 09:54:52;;;;;;;9.25;4.53;;;14.60;68.00;;;;;;5037642;28;20116;-77
2022/04/17 09:57:19;;;;;;;11.65;4.47;;;14.60;68.10;;;;;;5056546;28;20028;-78
2022/04/17 09:59:46;;;;;;;10.15;4.35;;;14.70;68.30;;;;;;5038975;28;20041;-76
2022/04/17 10:02:12;;;;;;;11.25;4.50;;;14.70;68.30;;;;;;5054799;28;20083;-77
2022/04/17 10:04:39;;;;;;;12.07;4.38;;;14.70;68.40;;;;;;5055443;28;20418;-77
2022/04/17 10:07:06;;;;;;;13.10;4.28;;;14.70;68.50;;;;;;5055229;28;20029;-77
2022/04/17 10:09:32;;;;;;;12.05;4.78;;;14.70;68.50;;;;;;5054177;28;20488;-77
2022/04/17 10:11:59;;;;;;;9.73;4.25;;;14.80;68.40;;;;;;5053867;28;20033;-77
2022/04/17 10:14:28;;;;;;;10.35;3.95;;;14.80;68.30;;;;;;5054237;28;20032;-76
2022/04/17 10:16:55;;;;;;;10.45;4.78;;;14.80;68.30;;;;;;5052879;28;20079;-73
2022/04/17 10:19:24;;;;;;;10.05;4.05;;;14.80;68.40;;;;;;5053688;28;20100;-74
2022/04/17 10:21:50;;;;;;;9.60;3.88;;;14.90;68.30;;;;;;5054512;28;20025;-73
2022/04/17 10:24:17;;;;;;;13.23;4.55;;;14.90;68.40;;;;;;5060656;28;20124;-73
2022/04/17 10:26:47;;;;;;;11.63;4.03;;;14.90;68.40;;;;;;5053151;28;20074;-73
2022/04/17 10:29:39;;;;;;;9.52;4.00;;;14.90;68.40;;;;;;5053819;28;20036;-73
2022/04/17 10:32:33;;;;;;;12.90;4.60;;;14.90;68.40;;;;;;5052533;28;20029;-74
2022/04/17 10:35:14;;;;;;;12.20;4.28;;;14.90;68.40;;;;;;5041168;28;20039;-76
2022/04/17 10:38:00;;;;;;;8.82;3.90;;;14.90;68.60;;;;;;5051712;28;20025;-76
2022/04/17 10:40:27;;;;;;;13.45;4.28;;;14.80;68.80;;;;;;5053831;28;20029;-75
2022/04/17 10:42:59;;;;;;;11.43;3.53;;;14.80;69.20;;;;;;5054573;28;20037;-76
2022/04/17 10:45:26;;;;;;;12.55;4.22;;;14.80;69.10;;;;;;5054621;28;20028;-76
2022/04/17 10:48:09;;;;;;;10.02;3.88;;;14.80;69.20;;;;;;5051395;28;20138;-76
2022/04/17 10:50:48;;;;;;;7.95;4.05;;;14.80;69.30;;;;;;5054545;28;20347;-76
2022/04/17 10:53:24;;;;;;;7.72;3.47;;;14.80;69.40;;;;;;5057592;28;20099;-77
2022/04/17 10:56:03;;;;;;;9.05;3.60;;;14.80;69.40;;;;;;5074063;28;20056;-76
2022/04/17 10:58:45;;;;;;;12.23;3.90;;;14.80;69.40;;;;;;5063498;28;20040;-76
2022/04/17 11:01:11;;;;;;;9.00;3.38;;;14.80;69.50;;;;;;5054238;28;20020;-76
2022/04/17 11:03:38;;;;;;;8.63;4.00;;;14.80;69.50;;;;;;5054392;28;20025;-76
2022/04/17 11:06:30;;;;;;;8.45;3.40;;;14.80;69.50;;;;;;5070523;28;20418;-77
2022/04/17 11:09:03;;;;;;;7.78;3.38;;;14.80;70.10;;;;;;5073803;28;20476;-77
2022/04/17 11:11:37;;;;;;;8.90;3.70;;;14.90;69.70;;;;;;5054072;28;20070;-78
2022/04/17 11:14:13;;;;;;;8.68;3.35;;;14.80;69.70;;;;;;5052132;28;20029;-77
2022/04/17 11:16:51;;;;;;;7.65;3.10;;;14.80;69.70;;;;;;5035862;28;20021;-78
2022/04/17 11:19:19;;;;;;;9.48;3.53;;;14.90;69.70;;;;;;5052412;28;20492;-76
2022/04/17 11:21:47;;;;;;;7.18;3.08;;;14.80;69.70;;;;;;5053499;28;20031;-77
2022/04/17 11:24:13;;;;;;;8.32;3.53;;;14.80;69.70;;;;;;5072788;28;20029;-76
2022/04/17 11:26:53;;;;;;;8.75;3.05;;;14.90;69.80;;;;;;5059775;28;20540;-77
2022/04/17 11:29:43;;;;;;;6.28;3.10;;;14.80;69.90;;;;;;5050677;28;21029;-76
2022/04/17 11:32:17;;;;;;;6.60;3.15;;;14.90;69.90;;;;;;5049012;28;20033;-75
2022/04/17 11:34:47;;;;;;;6.20;3.15;;;14.90;69.80;;;;;;5032498;28;20029;-77
2022/04/17 11:37:16;;;;;;;6.00;2.92;;;14.90;69.70;;;;;;5032198;28;20074;-77
2022/04/17 11:39:42;;;;;;;6.55;3.25;;;14.90;69.60;;;;;;5033341;28;20021;-77
2022/04/17 11:42:09;;;;;;;7.63;3.50;;;15.00;69.60;;;;;;5032442;28;20530;-77
2022/04/17 11:44:36;;;;;;;7.68;2.88;;;15.00;69.50;;;;;;5033378;28;20022;-77
2022/04/17 11:47:01;;;;;;;5.60;2.83;;;15.00;69.40;;;;;;5033303;28;20028;-76
2022/04/17 11:49:32;;;;;;;6.80;2.97;;;15.00;69.50;;;;;;5032286;28;20017;-77
2022/04/17 11:52:13;;;;;;;6.57;2.93;;;15.00;69.50;;;;;;5033808;28;20025;-77
2022/04/17 11:54:39;;;;;;;9.35;3.42;;;15.10;69.50;;;;;;5032478;28;20744;-77
2022/04/17 11:57:05;;;;;;;7.10;3.08;;;15.00;69.50;;;;;;5031982;28;20069;-77
2022/04/17 11:59:48;;;;;;;13.38;3.58;;;15.00;69.80;;;;;;5034144;28;20065;-79
2022/04/17 12:02:16;;;;;;;12.52;3.40;;;15.00;69.90;;;;;;5032306;28;20049;-79
2022/04/17 12:04:47;;;;;;;17.05;3.40;;;15.00;71.40;;;;;;5033738;28;20021;-79
2022/04/17 12:07:17;;;;;;;11.45;3.28;;;15.00;70.60;;;;;;5032707;28;20025;-77
2022/04/17 12:09:43;;;;;;;10.93;3.28;;;15.00;70.70;;;;;;5033585;28;20037;-78
2022/04/17 12:12:19;;;;;;;14.80;4.10;;;15.00;71.00;;;;;;5033779;28;20029;-77
2022/04/17 12:14:46;;;;;;;14.70;3.17;;;15.00;71.20;;;;;;5033864;28;20029;-77
2022/04/17 12:17:14;;;;;;;15.02;3.13;;;14.90;71.70;;;;;;5034542;28;20026;-78
2022/04/17 12:19:49;;;;;;;8.43;2.78;;;15.00;72.50;;;;;;5073235;28;20078;-77
2022/04/17 12:22:17;;;;;;;9.23;2.75;;;14.90;72.90;;;;;;5070873;28;20475;-74
2022/04/17 12:24:44;;;;;;;10.65;3.10;;;14.90;73.00;;;;;;5072912;28;20073;-78
2022/04/17 12:27:10;;;;;;;12.10;3.45;;;15.00;73.30;;;;;;5059348;28;20379;-78
2022/04/17 12:29:41;;;;;;;14.02;2.83;;;15.00;73.60;;;;;;5052217;28;20047;-76
2022/04/17 12:32:15;;;;;;;8.70;2.50;;;15.00;74.00;;;;;;5051948;28;20033;-79
2022/04/17 12:34:45;;;;;;;9.55;3.10;;;15.10;74.50;;;;;;5050563;28;20021;-79
2022/04/17 12:37:28;;;;;;;8.77;2.60;;;15.10;74.80;;;;;;5050135;28;20064;-79
2022/04/17 12:40:07;;;;;;;8.45;2.70;;;15.10;75.50;;;;;;5040775;28;20456;-77
2022/04/17 12:42:33;;;;;;;11.43;3.38;;;15.20;75.70;;;;;;5052820;28;20406;-77
2022/04/17 12:44:58;;;;;;;10.40;2.92;;;15.20;76.20;;;;;;5051410;28;20024;-77
2022/04/17 12:47:24;;;;;;;10.85;2.70;;;15.20;76.70;;;;;;5051107;28;20029;-77
2022/04/17 12:49:49;;;;;;;9.02;2.70;;;15.30;78.70;;;;;;5052522;28;20694;-78
2022/04/17 12:52:21;;;;;;;11.00;3.10;;;15.30;80.20;;;;;;5054276;28;20032;-78
2022/04/17 12:54:47;;;;;;;13.82;3.28;;;15.50;80.70;;;;;;5072510;28;20024;-78
2022/04/17 12:57:20;;;;;;;12.98;3.10;;;15.50;82.10;;;;;;5072427;28;20036;-78
2022/04/17 12:59:50;;;;;;;9.75;2.70;;;15.60;83.40;;;;;;5071155;28;20032;-78